sensor_id;sensor_type;location;lat;lon;timestamp;pressure;altitude;pressure_sealevel;temperature;humidity
82266;BME280;71866;53.340;-6.308;2024-01-07T00:00:05;102430.47;;;6.13;85.86
82266;BME280;71866;53.340;-6.308;2024-01-07T00:02:32;102429.75;;;6.10;85.51
82266;BME280;71866;53.340;-6.308;2024-01-07T00:05:00;102430.59;;;6.10;85.18
82266;BME280;71866;53.340;-6.308;2024-01-07T00:07:27;102430.28;;;5.98;85.41
82266;BME280;71866;53.340;-6.308;2024-01-07T00:09:54;102435.34;;;6.04;86.28
82266;BME280;71866;53.340;-6.308;2024-01-07T00:12:21;102439.84;;;6.02;85.99
82266;BME280;71866;53.340;-6.308;2024-01-07T00:14:49;102439.06;;;6.00;85.40
82266;BME280;71866;53.340;-6.308;2024-01-07T00:17:16;102438.19;;;5.99;84.95
82266;BME280;71866;53.340;-6.308;2024-01-07T00:19:43;102445.31;;;5.99;85.25
82266;BME280;71866;53.340;-6.308;2024-01-07T00:22:10;102437.41;;;5.97;85.42
82266;BME280;71866;53.340;-6.308;2024-01-07T00:24:37;102454.00;;;6.02;85.79
82266;BME280;71866;53.340;-6.308;2024-01-07T00:27:05;102450.75;;;5.95;85.02
82266;BME280;71866;53.340;-6.308;2024-01-07T00:29:32;102454.16;;;5.99;84.79
82266;BME280;71866;53.340;-6.308;2024-01-07T00:32:00;102451.56;;;5.98;84.98
82266;BME280;71866;53.340;-6.308;2024-01-07T00:34:26;102459.47;;;5.99;85.12
82266;BME280;71866;53.340;-6.308;2024-01-07T00:36:54;102442.03;;;5.92;84.91
82266;BME280;71866;53.340;-6.308;2024-01-07T00:39:22;102458.66;;;5.97;84.57
82266;BME280;71866;53.340;-6.308;2024-01-07T00:41:49;102461.38;;;5.95;85.14
82266;BME280;71866;53.340;-6.308;2024-01-07T00:44:16;102459.53;;;5.98;85.48
82266;BME280;71866;53.340;-6.308;2024-01-07T00:46:43;102471.09;;;5.97;85.16
82266;BME280;71866;53.340;-6.308;2024-01-07T00:49:14;102464.16;;;5.92;84.78
82266;BME280;71866;53.340;-6.308;2024-01-07T00:51:41;102463.97;;;5.97;85.10
82266;BME280;71866;53.340;-6.308;2024-01-07T00:54:09;102463.91;;;5.99;84.37
82266;BME280;71866;53.340;-6.308;2024-01-07T00:56:36;102477.94;;;6.02;84.02
82266;BME280;71866;53.340;-6.308;2024-01-07T00:59:02;102469.25;;;5.99;84.15
82266;BME280;71866;53.340;-6.308;2024-01-07T01:01:31;102472.03;;;5.95;83.61
82266;BME280;71866;53.340;-6.308;2024-01-07T01:03:58;102466.50;;;6.00;85.12
82266;BME280;71866;53.340;-6.308;2024-01-07T01:06:27;102470.16;;;5.98;84.52
82266;BME280;71866;53.340;-6.308;2024-01-07T01:08:55;102477.59;;;5.88;84.38
82266;BME280;71866;53.340;-6.308;2024-01-07T01:11:21;102479.31;;;5.90;84.50
82266;BME280;71866;53.340;-6.308;2024-01-07T01:13:49;102474.84;;;5.91;84.85
82266;BME280;71866;53.340;-6.308;2024-01-07T01:16:17;102468.78;;;5.87;84.11
82266;BME280;71866;53.340;-6.308;2024-01-07T01:18:46;102474.91;;;5.89;84.23
82266;BME280;71866;53.340;-6.308;2024-01-07T01:21:14;102469.63;;;5.88;84.68
82266;BME280;71866;53.340;-6.308;2024-01-07T01:23:42;102474.16;;;5.86;84.25
82266;BME280;71866;53.340;-6.308;2024-01-07T01:26:10;102481.25;;;5.85;84.50
82266;BME280;71866;53.340;-6.308;2024-01-07T01:28:36;102468.56;;;5.72;82.92
82266;BME280;71866;53.340;-6.308;2024-01-07T01:31:03;102478.19;;;5.74;84.28
82266;BME280;71866;53.340;-6.308;2024-01-07T01:33:31;102478.19;;;5.74;83.53
82266;BME280;71866;53.340;-6.308;2024-01-07T01:35:58;102482.66;;;5.74;84.25
82266;BME280;71866;53.340;-6.308;2024-01-07T01:38:24;102485.44;;;5.71;84.50
82266;BME280;71866;53.340;-6.308;2024-01-07T01:40:53;102476.91;;;5.62;84.15
82266;BME280;71866;53.340;-6.308;2024-01-07T01:43:27;102478.72;;;5.62;84.21
82266;BME280;71866;53.340;-6.308;2024-01-07T01:45:55;102474.47;;;5.58;83.91
82266;BME280;71866;53.340;-6.308;2024-01-07T01:48:23;102477.22;;;5.55;83.96
82266;BME280;71866;53.340;-6.308;2024-01-07T01:50:52;102479.94;;;5.53;84.22
82266;BME280;71866;53.340;-6.308;2024-01-07T01:53:19;102468.56;;;5.50;84.28
82266;BME280;71866;53.340;-6.308;2024-01-07T01:55:48;102477.59;;;5.46;84.21
82266;BME280;71866;53.340;-6.308;2024-01-07T01:58:17;102478.44;;;5.46;84.71
82266;BME280;71866;53.340;-6.308;2024-01-07T02:00:45;102482.91;;;5.46;84.69
82266;BME280;71866;53.340;-6.308;2024-01-07T02:03:13;102477.78;;;5.41;84.68
82266;BME280;71866;53.340;-6.308;2024-01-07T02:05:41;102485.63;;;5.44;84.40
82266;BME280;71866;53.340;-6.308;2024-01-07T02:08:07;102486.53;;;5.43;84.40
82266;BME280;71866;53.340;-6.308;2024-01-07T02:10:35;102500.50;;;5.48;84.76
82266;BME280;71866;53.340;-6.308;2024-01-07T02:13:06;102497.91;;;5.47;84.55
82266;BME280;71866;53.340;-6.308;2024-01-07T02:15:34;102493.53;;;5.46;85.29
82266;BME280;71866;53.340;-6.308;2024-01-07T02:18:01;102496.19;;;5.46;85.08
82266;BME280;71866;53.340;-6.308;2024-01-07T02:20:28;102511.94;;;5.50;84.50
82266;BME280;71866;53.340;-6.308;2024-01-07T02:22:55;102517.31;;;5.49;84.15
82266;BME280;71866;53.340;-6.308;2024-01-07T02:25:22;102514.66;;;5.49;85.05
82266;BME280;71866;53.340;-6.308;2024-01-07T02:27:50;102518.09;;;5.51;83.93
82266;BME280;71866;53.340;-6.308;2024-01-07T02:30:16;102518.97;;;5.51;83.59
82266;BME280;71866;53.340;-6.308;2024-01-07T02:32:43;102515.31;;;5.54;84.22
82266;BME280;71866;53.340;-6.308;2024-01-07T02:35:11;102522.31;;;5.56;85.13
82266;BME280;71866;53.340;-6.308;2024-01-07T02:37:37;102523.25;;;5.55;84.73
82266;BME280;71866;53.340;-6.308;2024-01-07T02:40:06;102514.31;;;5.58;85.21
82266;BME280;71866;53.340;-6.308;2024-01-07T02:42:32;102519.66;;;5.56;84.62
82266;BME280;71866;53.340;-6.308;2024-01-07T02:45:00;102532.84;;;5.59;84.74
82266;BME280;71866;53.340;-6.308;2024-01-07T02:47:27;102531.06;;;5.60;85.26
82266;BME280;71866;53.340;-6.308;2024-01-07T02:49:54;102535.38;;;5.62;84.46
82266;BME280;71866;53.340;-6.308;2024-01-07T02:52:21;102524.00;;;5.59;84.69
82266;BME280;71866;53.340;-6.308;2024-01-07T02:54:49;102528.41;;;5.60;84.27
82266;BME280;71866;53.340;-6.308;2024-01-07T02:57:16;102528.41;;;5.60;84.93
82266;BME280;71866;53.340;-6.308;2024-01-07T02:59:42;102524.81;;;5.61;84.13
82266;BME280;71866;53.340;-6.308;2024-01-07T03:02:10;102533.72;;;5.60;84.93
82266;BME280;71866;53.340;-6.308;2024-01-07T03:04:36;102530.28;;;5.56;84.04
82266;BME280;71866;53.340;-6.308;2024-01-07T03:07:03;102538.22;;;5.58;84.69
82266;BME280;71866;53.340;-6.308;2024-01-07T03:09:31;102529.47;;;5.54;84.85
82266;BME280;71866;53.340;-6.308;2024-01-07T03:11:57;102526.75;;;5.56;84.99
82266;BME280;71866;53.340;-6.308;2024-01-07T03:14:25;102537.31;;;5.57;84.52
82266;BME280;71866;53.340;-6.308;2024-01-07T03:16:52;102534.66;;;5.57;84.63
82266;BME280;71866;53.340;-6.308;2024-01-07T03:19:20;102541.75;;;5.58;84.85
82266;BME280;71866;53.340;-6.308;2024-01-07T03:21:48;102540.81;;;5.59;84.93
82266;BME280;71866;53.340;-6.308;2024-01-07T03:24:16;102543.47;;;5.59;84.97
82266;BME280;71866;53.340;-6.308;2024-01-07T03:26:43;102538.22;;;5.58;84.38
82266;BME280;71866;53.340;-6.308;2024-01-07T03:29:10;102545.25;;;5.59;84.46
82266;BME280;71866;53.340;-6.308;2024-01-07T03:31:37;102546.13;;;5.59;84.63
82266;BME280;71866;53.340;-6.308;2024-01-07T03:34:04;102546.13;;;5.59;83.67
82266;BME280;71866;53.340;-6.308;2024-01-07T03:36:31;102536.47;;;5.57;83.02
82266;BME280;71866;53.340;-6.308;2024-01-07T03:38:58;102542.69;;;5.56;83.59
82266;BME280;71866;53.340;-6.308;2024-01-07T03:41:25;102543.75;;;5.52;83.53
82266;BME280;71866;53.340;-6.308;2024-01-07T03:43:53;102548.25;;;5.50;83.16
82266;BME280;71866;53.340;-6.308;2024-01-07T03:46:20;102548.38;;;5.47;83.16
82266;BME280;71866;53.340;-6.308;2024-01-07T03:48:47;102541.47;;;5.43;82.89
82266;BME280;71866;53.340;-6.308;2024-01-07T03:51:14;102550.28;;;5.43;83.12
82266;BME280;71866;53.340;-6.308;2024-01-07T03:53:43;102558.16;;;5.46;82.82
82266;BME280;71866;53.340;-6.308;2024-01-07T03:56:10;102557.34;;;5.44;82.88
82266;BME280;71866;53.340;-6.308;2024-01-07T03:58:36;102560.19;;;5.40;82.19
82266;BME280;71866;53.340;-6.308;2024-01-07T04:01:04;102567.28;;;5.39;82.75
82266;BME280;71866;53.340;-6.308;2024-01-07T04:03:32;102563.94;;;5.34;82.34
82266;BME280;71866;53.340;-6.308;2024-01-07T04:05:58;102570.97;;;5.35;82.17
82266;BME280;71866;53.340;-6.308;2024-01-07T04:08:25;102574.69;;;5.31;82.66
82266;BME280;71866;53.340;-6.308;2024-01-07T04:10:53;102582.59;;;5.32;83.62
82266;BME280;71866;53.340;-6.308;2024-01-07T04:13:19;102574.69;;;5.31;82.73
82266;BME280;71866;53.340;-6.308;2024-01-07T04:15:47;102580.13;;;5.28;82.53
82266;BME280;71866;53.340;-6.308;2024-01-07T04:18:13;102573.88;;;5.29;82.97
82266;BME280;71866;53.340;-6.308;2024-01-07T04:20:41;102571.47;;;5.23;82.38
82266;BME280;71866;53.340;-6.308;2024-01-07T04:23:08;102576.72;;;5.24;82.77
82266;BME280;71866;53.340;-6.308;2024-01-07T04:25:35;102583.81;;;5.24;82.41
82266;BME280;71866;53.340;-6.308;2024-01-07T04:28:02;102582.94;;;5.23;82.55
82266;BME280;71866;53.340;-6.308;2024-01-07T04:30:29;102575.38;;;5.13;81.93
82266;BME280;71866;53.340;-6.308;2024-01-07T04:32:57;102591.94;;;5.19;81.97
82266;BME280;71866;53.340;-6.308;2024-01-07T04:35:24;102590.25;;;5.17;82.45
82266;BME280;71866;53.340;-6.308;2024-01-07T04:37:51;102592.09;;;5.15;81.95
82266;BME280;71866;53.340;-6.308;2024-01-07T04:40:18;102604.56;;;5.13;82.67
82266;BME280;71866;53.340;-6.308;2024-01-07T04:42:45;102598.44;;;5.11;82.03
82266;BME280;71866;53.340;-6.308;2024-01-07T04:45:12;102604.75;;;5.08;81.90
82266;BME280;71866;53.340;-6.308;2024-01-07T04:47:39;102606.53;;;5.08;82.48
82266;BME280;71866;53.340;-6.308;2024-01-07T04:50:07;102606.66;;;5.05;82.09
82266;BME280;71866;53.340;-6.308;2024-01-07T04:52:33;102599.66;;;5.02;82.45
82266;BME280;71866;53.340;-6.308;2024-01-07T04:55:01;102597.19;;;4.97;82.33
82266;BME280;71866;53.340;-6.308;2024-01-07T04:57:28;102609.53;;;4.98;82.34
82266;BME280;71866;53.340;-6.308;2024-01-07T04:59:55;102608.66;;;4.98;82.38
82266;BME280;71866;53.340;-6.308;2024-01-07T05:02:22;102611.44;;;4.95;82.77
82266;BME280;71866;53.340;-6.308;2024-01-07T05:04:50;102610.72;;;4.90;82.83
82266;BME280;71866;53.340;-6.308;2024-01-07T05:07:16;102609.97;;;4.86;83.05
82266;BME280;71866;53.340;-6.308;2024-01-07T05:09:44;102603.03;;;4.82;83.33
82266;BME280;71866;53.340;-6.308;2024-01-07T05:12:11;102613.63;;;4.82;82.90
82266;BME280;71866;53.340;-6.308;2024-01-07T05:14:38;102612.81;;;4.80;83.17
82266;BME280;71866;53.340;-6.308;2024-01-07T05:17:06;102608.66;;;4.73;82.79
82266;BME280;71866;53.340;-6.308;2024-01-07T05:19:33;102610.41;;;4.74;82.80
82266;BME280;71866;53.340;-6.308;2024-01-07T05:21:59;102618.53;;;4.69;82.81
82266;BME280;71866;53.340;-6.308;2024-01-07T05:24:27;102616.84;;;4.67;82.99
82266;BME280;71866;53.340;-6.308;2024-01-07T05:26:54;102625.78;;;4.64;82.68
82266;BME280;71866;53.340;-6.308;2024-01-07T05:29:21;102616.34;;;4.56;82.49
82266;BME280;71866;53.340;-6.308;2024-01-07T05:31:48;102631.28;;;4.58;82.84
82266;BME280;71866;53.340;-6.308;2024-01-07T05:34:16;102629.63;;;4.56;82.78
82266;BME280;71866;53.340;-6.308;2024-01-07T05:36:42;102627.06;;;4.53;82.85
82266;BME280;71866;53.340;-6.308;2024-01-07T05:39:10;102628.16;;;4.47;81.83
82266;BME280;71866;53.340;-6.308;2024-01-07T05:41:37;102633.53;;;4.44;82.02
82266;BME280;71866;53.340;-6.308;2024-01-07T05:44:09;102637.97;;;4.44;82.38
82266;BME280;71866;53.340;-6.308;2024-01-07T05:46:40;102629.50;;;4.32;82.16
82266;BME280;71866;53.340;-6.308;2024-01-07T05:49:08;102640.81;;;4.37;82.08
82266;BME280;71866;53.340;-6.308;2024-01-07T05:51:39;102648.94;;;4.33;82.30
82266;BME280;71866;53.340;-6.308;2024-01-07T05:54:07;102650.81;;;4.29;82.73
82266;BME280;71866;53.340;-6.308;2024-01-07T05:56:41;102655.31;;;4.27;82.39
82266;BME280;71866;53.340;-6.308;2024-01-07T05:59:09;102652.81;;;4.23;82.31
82266;BME280;71866;53.340;-6.308;2024-01-07T06:01:35;102652.88;;;4.21;80.96
82266;BME280;71866;53.340;-6.308;2024-01-07T06:04:03;102658.16;;;4.21;81.86
82266;BME280;71866;53.340;-6.308;2024-01-07T06:06:31;102655.53;;;4.21;81.16
82266;BME280;71866;53.340;-6.308;2024-01-07T06:08:58;102663.56;;;4.18;81.02
82266;BME280;71866;53.340;-6.308;2024-01-07T06:11:26;102669.91;;;4.14;81.29
82266;BME280;71866;53.340;-6.308;2024-01-07T06:13:52;102669.19;;;4.09;81.33
82266;BME280;71866;53.340;-6.308;2024-01-07T06:16:20;102671.88;;;4.06;80.57
82266;BME280;71866;53.340;-6.308;2024-01-07T06:18:46;102685.34;;;4.00;80.69
82266;BME280;71866;53.340;-6.308;2024-01-07T06:21:15;102680.13;;;3.97;81.30
82266;BME280;71866;53.340;-6.308;2024-01-07T06:23:41;102676.75;;;3.92;81.76
82266;BME280;71866;53.340;-6.308;2024-01-07T06:26:09;102679.56;;;3.87;81.21
82266;BME280;71866;53.340;-6.308;2024-01-07T06:28:35;102685.06;;;3.81;80.23
82266;BME280;71866;53.340;-6.308;2024-01-07T06:31:03;102666.94;;;3.66;81.53
82266;BME280;71866;53.340;-6.308;2024-01-07T06:33:31;102687.22;;;3.67;81.33
82266;BME280;71866;53.340;-6.308;2024-01-07T06:36:00;102667.28;;;3.55;82.27
82266;BME280;71866;53.340;-6.308;2024-01-07T06:38:28;102684.84;;;3.58;82.05
82266;BME280;71866;53.340;-6.308;2024-01-07T06:40:55;102687.59;;;3.55;82.50
82266;BME280;71866;53.340;-6.308;2024-01-07T06:43:27;102684.13;;;3.53;81.40
82266;BME280;71866;53.340;-6.308;2024-01-07T06:45:55;102691.28;;;3.49;82.10
82266;BME280;71866;53.340;-6.308;2024-01-07T06:48:22;102699.31;;;3.46;83.03
82266;BME280;71866;53.340;-6.308;2024-01-07T06:50:49;102690.59;;;3.42;82.75
82266;BME280;71866;53.340;-6.308;2024-01-07T06:53:16;102697.59;;;3.45;82.44
82266;BME280;71866;53.340;-6.308;2024-01-07T06:55:44;102703.84;;;3.42;81.93
82266;BME280;71866;53.340;-6.308;2024-01-07T06:58:10;102709.31;;;3.36;83.21
82266;BME280;71866;53.340;-6.308;2024-01-07T07:00:38;102710.09;;;3.40;82.37
82266;BME280;71866;53.340;-6.308;2024-01-07T07:03:06;102721.59;;;3.39;82.79
82266;BME280;71866;53.340;-6.308;2024-01-07T07:05:34;102708.41;;;3.37;82.10
82266;BME280;71866;53.340;-6.308;2024-01-07T07:08:01;102717.13;;;3.41;83.07
82266;BME280;71866;53.340;-6.308;2024-01-07T07:10:29;102725.13;;;3.39;83.93
82266;BME280;71866;53.340;-6.308;2024-01-07T07:12:56;102726.81;;;3.42;83.67
82266;BME280;71866;53.340;-6.308;2024-01-07T07:15:22;102736.47;;;3.43;82.79
82266;BME280;71866;53.340;-6.308;2024-01-07T07:17:50;102733.78;;;3.44;83.78
82266;BME280;71866;53.340;-6.308;2024-01-07T07:20:17;102731.19;;;3.43;83.11
82266;BME280;71866;53.340;-6.308;2024-01-07T07:22:44;102736.34;;;3.48;82.89
82266;BME280;71866;53.340;-6.308;2024-01-07T07:25:11;102749.50;;;3.51;83.03
82266;BME280;71866;53.340;-6.308;2024-01-07T07:27:38;102744.28;;;3.48;82.75
82266;BME280;71866;53.340;-6.308;2024-01-07T07:30:06;102755.72;;;3.50;83.18
82266;BME280;71866;53.340;-6.308;2024-01-07T07:32:32;102755.75;;;3.48;83.05
82266;BME280;71866;53.340;-6.308;2024-01-07T07:35:00;102753.16;;;3.47;84.11
82266;BME280;71866;53.340;-6.308;2024-01-07T07:37:27;102766.31;;;3.50;82.70
82266;BME280;71866;53.340;-6.308;2024-01-07T07:39:54;102763.69;;;3.48;83.52
82266;BME280;71866;53.340;-6.308;2024-01-07T07:42:21;102763.88;;;3.42;83.82
82266;BME280;71866;53.340;-6.308;2024-01-07T07:44:48;102769.38;;;3.33;84.23
82266;BME280;71866;53.340;-6.308;2024-01-07T07:47:15;102771.13;;;3.34;83.76
82266;BME280;71866;53.340;-6.308;2024-01-07T07:49:43;102756.16;;;3.33;84.31
82266;BME280;71866;53.340;-6.308;2024-01-07T07:52:09;102771.00;;;3.40;84.34
82266;BME280;71866;53.340;-6.308;2024-01-07T07:54:39;102773.72;;;3.37;84.11
82266;BME280;71866;53.340;-6.308;2024-01-07T07:57:07;102776.25;;;3.41;84.57
82266;BME280;71866;53.340;-6.308;2024-01-07T07:59:34;102777.13;;;3.42;84.16
82266;BME280;71866;53.340;-6.308;2024-01-07T08:02:01;102766.53;;;3.42;84.40
82266;BME280;71866;53.340;-6.308;2024-01-07T08:04:28;102773.41;;;3.48;84.61
82266;BME280;71866;53.340;-6.308;2024-01-07T08:06:56;102779.63;;;3.47;83.61
82266;BME280;71866;53.340;-6.308;2024-01-07T08:09:23;102780.66;;;3.41;84.05
82266;BME280;71866;53.340;-6.308;2024-01-07T08:11:50;102781.38;;;3.48;84.46
82266;BME280;71866;53.340;-6.308;2024-01-07T08:14:18;102781.50;;;3.43;84.67
82266;BME280;71866;53.340;-6.308;2024-01-07T08:16:46;102791.00;;;3.50;83.82
82266;BME280;71866;53.340;-6.308;2024-01-07T08:19:12;102797.13;;;3.52;83.74
82266;BME280;71866;53.340;-6.308;2024-01-07T08:21:40;102797.13;;;3.52;85.22
82266;BME280;71866;53.340;-6.308;2024-01-07T08:24:08;102794.56;;;3.49;85.38
82266;BME280;71866;53.340;-6.308;2024-01-07T08:26:35;102800.72;;;3.50;85.15
82266;BME280;71866;53.340;-6.308;2024-01-07T08:29:02;102803.47;;;3.47;84.41
82266;BME280;71866;53.340;-6.308;2024-01-07T08:31:29;102805.13;;;3.51;84.40
82266;BME280;71866;53.340;-6.308;2024-01-07T08:33:57;102803.34;;;3.51;83.72
82266;BME280;71866;53.340;-6.308;2024-01-07T08:36:24;102813.00;;;3.52;84.27
82266;BME280;71866;53.340;-6.308;2024-01-07T08:38:52;102814.78;;;3.52;84.71
82266;BME280;71866;53.340;-6.308;2024-01-07T08:41:18;102815.72;;;3.51;84.88
82266;BME280;71866;53.340;-6.308;2024-01-07T08:43:45;102813.06;;;3.51;84.88
82266;BME280;71866;53.340;-6.308;2024-01-07T08:46:13;102818.47;;;3.46;85.03
82266;BME280;71866;53.340;-6.308;2024-01-07T08:48:39;102826.34;;;3.49;85.01
82266;BME280;71866;53.340;-6.308;2024-01-07T08:51:07;102811.38;;;3.48;85.95
82266;BME280;71866;53.340;-6.308;2024-01-07T08:53:34;102819.19;;;3.53;84.97
82266;BME280;71866;53.340;-6.308;2024-01-07T08:56:02;102826.28;;;3.51;84.17
82266;BME280;71866;53.340;-6.308;2024-01-07T08:58:28;102822.69;;;3.53;85.10
82266;BME280;71866;53.340;-6.308;2024-01-07T09:00:56;102823.59;;;3.52;84.99
82266;BME280;71866;53.340;-6.308;2024-01-07T09:03:24;102836.63;;;3.60;84.42
82266;BME280;71866;53.340;-6.308;2024-01-07T09:05:50;102834.94;;;3.57;85.02
82266;BME280;71866;53.340;-6.308;2024-01-07T09:08:17;102825.22;;;3.58;84.85
82266;BME280;71866;53.340;-6.308;2024-01-07T09:10:45;102840.06;;;3.63;85.39
82266;BME280;71866;53.340;-6.308;2024-01-07T09:13:11;102834.81;;;3.62;84.48
82266;BME280;71866;53.340;-6.308;2024-01-07T09:15:40;102833.81;;;3.66;84.10
82266;BME280;71866;53.340;-6.308;2024-01-07T09:18:07;102840.75;;;3.70;84.98
82266;BME280;71866;53.340;-6.308;2024-01-07T09:20:35;102831.22;;;3.64;83.66
82266;BME280;71866;53.340;-6.308;2024-01-07T09:23:01;102845.31;;;3.65;85.03
82266;BME280;71866;53.340;-6.308;2024-01-07T09:25:29;102849.59;;;3.70;84.66
82266;BME280;71866;53.340;-6.308;2024-01-07T09:27:56;102847.78;;;3.72;84.53
82266;BME280;71866;53.340;-6.308;2024-01-07T09:30:23;102848.56;;;3.76;84.48
82266;BME280;71866;53.340;-6.308;2024-01-07T09:32:50;102836.19;;;3.76;84.23
82266;BME280;71866;53.340;-6.308;2024-01-07T09:35:17;102834.50;;;3.74;84.65
82266;BME280;71866;53.340;-6.308;2024-01-07T09:37:43;102846.72;;;3.80;84.03
82266;BME280;71866;53.340;-6.308;2024-01-07T09:40:12;102858.91;;;3.85;84.20
82266;BME280;71866;53.340;-6.308;2024-01-07T09:42:39;102857.13;;;3.86;84.08
82266;BME280;71866;53.340;-6.308;2024-01-07T09:45:07;102851.75;;;3.89;83.62
82266;BME280;71866;53.340;-6.308;2024-01-07T09:47:39;102854.41;;;3.89;83.74
82266;BME280;71866;53.340;-6.308;2024-01-07T09:50:07;102853.41;;;3.93;83.55
82266;BME280;71866;53.340;-6.308;2024-01-07T09:52:35;102857.78;;;3.94;84.21
82266;BME280;71866;53.340;-6.308;2024-01-07T09:55:06;102853.44;;;3.91;83.66
82266;BME280;71866;53.340;-6.308;2024-01-07T09:57:40;102851.75;;;3.89;84.14
82266;BME280;71866;53.340;-6.308;2024-01-07T10:00:07;102863.22;;;3.89;83.99
82266;BME280;71866;53.340;-6.308;2024-01-07T10:02:35;102867.59;;;3.90;83.50
82266;BME280;71866;53.340;-6.308;2024-01-07T10:05:02;102864.13;;;3.88;83.86
82266;BME280;71866;53.340;-6.308;2024-01-07T10:07:30;102862.25;;;3.92;83.84
82266;BME280;71866;53.340;-6.308;2024-01-07T10:09:57;102870.13;;;3.95;83.04
82266;BME280;71866;53.340;-6.308;2024-01-07T10:12:24;102872.69;;;3.98;83.80
82266;BME280;71866;53.340;-6.308;2024-01-07T10:14:51;102877.03;;;4.00;83.31
82266;BME280;71866;53.340;-6.308;2024-01-07T10:17:19;102877.97;;;3.98;82.19
82266;BME280;71866;53.340;-6.308;2024-01-07T10:19:45;102878.81;;;4.00;82.76
82266;BME280;71866;53.340;-6.308;2024-01-07T10:22:13;102883.97;;;4.04;83.66
82266;BME280;71866;53.340;-6.308;2024-01-07T10:24:41;102894.47;;;4.09;83.41
82266;BME280;71866;53.340;-6.308;2024-01-07T10:27:09;102894.47;;;4.09;82.01
82266;BME280;71866;53.340;-6.308;2024-01-07T10:29:36;102885.72;;;4.05;81.82
82266;BME280;71866;53.340;-6.308;2024-01-07T10:32:03;102883.19;;;4.01;81.53
82266;BME280;71866;53.340;-6.308;2024-01-07T10:34:33;102877.50;;;3.84;82.11
82266;BME280;71866;53.340;-6.308;2024-01-07T10:37:02;102890.66;;;3.87;81.72
82266;BME280;71866;53.340;-6.308;2024-01-07T10:39:30;102897.00;;;3.81;82.17
82266;BME280;71866;53.340;-6.308;2024-01-07T10:41:57;102892.56;;;3.82;83.37
82266;BME280;71866;53.340;-6.308;2024-01-07T10:44:30;102898.75;;;3.82;82.90
82266;BME280;71866;53.340;-6.308;2024-01-07T10:46:58;102904.16;;;3.78;82.17
82266;BME280;71866;53.340;-6.308;2024-01-07T10:49:27;102905.94;;;3.77;82.27
82266;BME280;71866;53.340;-6.308;2024-01-07T10:52:05;102917.78;;;3.62;83.83
82266;BME280;71866;53.340;-6.308;2024-01-07T10:54:34;102910.72;;;3.63;82.73
82266;BME280;71866;53.340;-6.308;2024-01-07T10:57:27;102907.13;;;3.65;83.13
82266;BME280;71866;53.340;-6.308;2024-01-07T11:00:00;102913.25;;;3.67;83.34
82266;BME280;71866;53.340;-6.308;2024-01-07T11:02:28;102917.66;;;3.67;82.12
82266;BME280;71866;53.340;-6.308;2024-01-07T11:05:19;102916.72;;;3.69;83.10
82266;BME280;71866;53.340;-6.308;2024-01-07T11:08:05;102915.75;;;3.73;82.81
82266;BME280;71866;53.340;-6.308;2024-01-07T11:10:44;102917.41;;;3.78;83.66
82266;BME280;71866;53.340;-6.308;2024-01-07T11:13:38;102910.22;;;3.83;83.12
82266;BME280;71866;53.340;-6.308;2024-01-07T11:16:06;102921.63;;;3.85;82.83
82266;BME280;71866;53.340;-6.308;2024-01-07T11:18:37;102919.78;;;3.88;82.70
82266;BME280;71866;53.340;-6.308;2024-01-07T11:21:04;102907.38;;;3.89;81.86
82266;BME280;71866;53.340;-6.308;2024-01-07T11:23:32;102915.22;;;3.93;82.52
82266;BME280;71866;53.340;-6.308;2024-01-07T11:26:02;102910.88;;;3.91;83.34
82266;BME280;71866;53.340;-6.308;2024-01-07T11:28:47;102915.00;;;4.01;82.97
82266;BME280;71866;53.340;-6.308;2024-01-07T11:31:20;102914.00;;;4.05;82.82
82266;BME280;71866;53.340;-6.308;2024-01-07T11:33:48;102914.72;;;4.12;82.97
82266;BME280;71866;53.340;-6.308;2024-01-07T11:36:17;102915.47;;;4.17;82.55
82266;BME280;71866;53.340;-6.308;2024-01-07T11:38:48;102912.78;;;4.18;82.26
82266;BME280;71866;53.340;-6.308;2024-01-07T11:41:20;102905.78;;;4.16;82.71
82266;BME280;71866;53.340;-6.308;2024-01-07T11:43:58;102906.72;;;4.13;82.70
82266;BME280;71866;53.340;-6.308;2024-01-07T11:46:32;102920.84;;;4.14;83.48
82266;BME280;71866;53.340;-6.308;2024-01-07T11:49:00;102914.59;;;4.16;82.87
82266;BME280;71866;53.340;-6.308;2024-01-07T11:51:28;102911.91;;;4.18;83.52
82266;BME280;71866;53.340;-6.308;2024-01-07T11:53:57;102919.75;;;4.21;83.41
82266;BME280;71866;53.340;-6.308;2024-01-07T11:56:27;102911.81;;;4.21;83.14
82266;BME280;71866;53.340;-6.308;2024-01-07T11:58:54;102914.47;;;4.21;84.00
82266;BME280;71866;53.340;-6.308;2024-01-07T12:01:22;102919.59;;;4.27;83.81
82266;BME280;71866;53.340;-6.308;2024-01-07T12:03:49;102921.91;;;4.37;83.62
82266;BME280;71866;53.340;-6.308;2024-01-07T12:06:18;102913.78;;;4.44;84.16
82266;BME280;71866;53.340;-6.308;2024-01-07T12:08:47;102917.19;;;4.49;83.98
82266;BME280;71866;53.340;-6.308;2024-01-07T12:11:14;102915.41;;;4.49;83.98
82266;BME280;71866;53.340;-6.308;2024-01-07T12:13:43;102914.47;;;4.52;84.34
82266;BME280;71866;53.340;-6.308;2024-01-07T12:16:10;102917.97;;;4.52;84.28
82266;BME280;71866;53.340;-6.308;2024-01-07T12:18:38;102911.72;;;4.55;84.82
82266;BME280;71866;53.340;-6.308;2024-01-07T12:21:06;102919.53;;;4.59;85.18
82266;BME280;71866;53.340;-6.308;2024-01-07T12:23:36;102912.25;;;4.66;84.36
82266;BME280;71866;53.340;-6.308;2024-01-07T12:26:10;102912.00;;;4.74;84.82
82266;BME280;71866;53.340;-6.308;2024-01-07T12:28:38;102914.47;;;4.80;84.28
82266;BME280;71866;53.340;-6.308;2024-01-07T12:31:07;102906.50;;;4.80;84.32
82266;BME280;71866;53.340;-6.308;2024-01-07T12:33:36;102918.66;;;4.88;84.81
82266;BME280;71866;53.340;-6.308;2024-01-07T12:36:06;102911.41;;;4.93;84.18
82266;BME280;71866;53.340;-6.308;2024-01-07T12:38:36;102912.75;;;5.07;83.97
82266;BME280;71866;53.340;-6.308;2024-01-07T12:41:05;102906.19;;;5.18;84.00
82266;BME280;71866;53.340;-6.308;2024-01-07T12:43:33;102903.41;;;5.23;84.19
82266;BME280;71866;53.340;-6.308;2024-01-07T12:46:00;102904.97;;;5.28;83.70
82266;BME280;71866;53.340;-6.308;2024-01-07T12:48:26;102886.97;;;5.10;84.29
82266;BME280;71866;53.340;-6.308;2024-01-07T12:50:55;102898.38;;;5.14;84.25
82266;BME280;71866;53.340;-6.308;2024-01-07T12:53:22;102899.94;;;5.19;84.79